Clarksville, Tennessee
Current Conditions -  °F | °C
As of 9:52 AM on Thursday 29 Jan 2015 (Local Time) from KCKV Reporting Station
Clear Clear  
Wind Chill: 59°   Ceiling: Unl
Heat Index: 59°   Visibility: 10mi
Dew Point: 40°   Wind: 20mph
Humidity: 49%   Direction: 240°WSW
Pressure: 30.01"   Gusts: 25mph
Location:  36.53°N, 87.36°W
Report Text: KCKV 291552Z AUTO 24017G22KT 10SM CLR 15/04 A3001 RMK AO2 PK WND 22029/1531 SLP163 T01500044
Loading
Personal Weather Stations






























Interactive Weather Map New forecast layout! Learn more

10-Day Weather Forecast

Advertisements
Track Severe Weather on mobile